sensor_id;sensor_type;location;lat;lon;timestamp;temperature;humidity
16838;DHT22;19510;54.486;9.046;2023-05-14T06:30:12;16.50;99.90
16838;DHT22;19510;54.486;9.046;2023-05-14T06:32:38;16.60;99.90
16838;DHT22;19510;54.486;9.046;2023-05-14T06:35:14;16.60;99.90
16838;DHT22;19510;54.486;9.046;2023-05-14T06:37:40;16.70;99.90
16838;DHT22;19510;54.486;9.046;2023-05-14T06:40:06;16.70;99.90
16838;DHT22;19510;54.486;9.046;2023-05-14T06:42:32;16.70;99.90
16838;DHT22;19510;54.486;9.046;2023-05-14T06:44:58;16.80;99.90
16838;DHT22;19510;54.486;9.046;2023-05-14T06:47:24;16.80;99.90
16838;DHT22;19510;54.486;9.046;2023-05-14T06:49:49;16.90;99.90
16838;DHT22;19510;54.486;9.046;2023-05-14T06:52:15;16.90;99.90
16838;DHT22;19510;54.486;9.046;2023-05-14T06:54:41;17.00;99.90
16838;DHT22;19510;54.486;9.046;2023-05-14T06:57:06;17.00;99.90
16838;DHT22;19510;54.486;9.046;2023-05-14T06:59:32;17.00;99.90
16838;DHT22;19510;54.486;9.046;2023-05-14T07:01:58;17.10;99.90
16838;DHT22;19510;54.486;9.046;2023-05-14T07:04:24;17.20;99.90
16838;DHT22;19510;54.486;9.046;2023-05-14T07:06:50;17.20;99.90
16838;DHT22;19510;54.486;9.046;2023-05-14T07:09:17;17.30;99.90
16838;DHT22;19510;54.486;9.046;2023-05-14T07:11:43;17.40;99.90
16838;DHT22;19510;54.486;9.046;2023-05-14T07:14:09;17.40;99.90
16838;DHT22;19510;54.486;9.046;2023-05-14T07:16:35;17.50;99.90
16838;DHT22;19510;54.486;9.046;2023-05-14T07:19:01;17.50;99.90
16838;DHT22;19510;54.486;9.046;2023-05-14T07:21:30;17.50;99.90
16838;DHT22;19510;54.486;9.046;2023-05-14T07:23:56;17.50;99.90
16838;DHT22;19510;54.486;9.046;2023-05-14T07:26:21;17.60;99.90
16838;DHT22;19510;54.486;9.046;2023-05-14T07:28:49;17.70;99.90
16838;DHT22;19510;54.486;9.046;2023-05-14T07:31:15;17.70;99.90
16838;DHT22;19510;54.486;9.046;2023-05-14T07:33:41;17.80;99.90
16838;DHT22;19510;54.486;9.046;2023-05-14T07:36:07;17.90;99.90
16838;DHT22;19510;54.486;9.046;2023-05-14T07:38:36;18.00;99.90
16838;DHT22;19510;54.486;9.046;2023-05-14T07:41:02;18.00;99.90
16838;DHT22;19510;54.486;9.046;2023-05-14T07:43:28;18.20;99.90
16838;DHT22;19510;54.486;9.046;2023-05-14T07:45:54;18.30;99.90
16838;DHT22;19510;54.486;9.046;2023-05-14T07:48:20;18.40;99.90
16838;DHT22;19510;54.486;9.046;2023-05-14T07:50:47;18.50;99.90
16838;DHT22;19510;54.486;9.046;2023-05-14T07:53:15;18.50;99.90
16838;DHT22;19510;54.486;9.046;2023-05-14T07:55:40;18.60;99.90
16838;DHT22;19510;54.486;9.046;2023-05-14T07:58:06;18.70;99.90
16838;DHT22;19510;54.486;9.046;2023-05-14T08:00:32;18.80;99.90
16838;DHT22;19510;54.486;9.046;2023-05-14T08:02:57;18.80;99.90
16838;DHT22;19510;54.486;9.046;2023-05-14T08:05:23;18.90;99.90
16838;DHT22;19510;54.486;9.046;2023-05-14T08:07:49;18.90;99.90
16838;DHT22;19510;54.486;9.046;2023-05-14T08:10:15;19.10;99.90
16838;DHT22;19510;54.486;9.046;2023-05-14T08:12:41;19.10;99.90
16838;DHT22;19510;54.486;9.046;2023-05-14T08:15:07;19.20;99.90
16838;DHT22;19510;54.486;9.046;2023-05-14T08:17:36;19.20;99.90
16838;DHT22;19510;54.486;9.046;2023-05-14T08:20:02;19.10;99.90
16838;DHT22;19510;54.486;9.046;2023-05-14T08:22:28;19.10;99.90
16838;DHT22;19510;54.486;9.046;2023-05-14T08:24:53;19.10;99.90
16838;DHT22;19510;54.486;9.046;2023-05-14T08:27:19;19.10;99.90
16838;DHT22;19510;54.486;9.046;2023-05-14T08:29:45;19.10;99.90
16838;DHT22;19510;54.486;9.046;2023-05-14T08:32:11;19.10;99.90
16838;DHT22;19510;54.486;9.046;2023-05-14T08:34:37;19.10;99.90
16838;DHT22;19510;54.486;9.046;2023-05-14T08:37:02;19.20;99.90
16838;DHT22;19510;54.486;9.046;2023-05-14T08:39:28;19.10;99.90
16838;DHT22;19510;54.486;9.046;2023-05-14T08:41:56;19.20;99.90
16838;DHT22;19510;54.486;9.046;2023-05-14T08:44:46;19.20;99.90
16838;DHT22;19510;54.486;9.046;2023-05-14T08:47:15;19.30;99.90
16838;DHT22;19510;54.486;9.046;2023-05-14T08:49:45;19.30;99.90
16838;DHT22;19510;54.486;9.046;2023-05-14T08:52:15;19.40;99.90
16838;DHT22;19510;54.486;9.046;2023-05-14T08:54:42;19.50;99.90
16838;DHT22;19510;54.486;9.046;2023-05-14T08:57:10;19.60;99.90
16838;DHT22;19510;54.486;9.046;2023-05-14T08:59:36;19.80;99.90
16838;DHT22;19510;54.486;9.046;2023-05-14T09:02:03;20.00;99.90
16838;DHT22;19510;54.486;9.046;2023-05-14T09:04:31;20.00;99.90
16838;DHT22;19510;54.486;9.046;2023-05-14T09:06:59;20.10;99.90
16838;DHT22;19510;54.486;9.046;2023-05-14T09:09:27;20.30;99.90
16838;DHT22;19510;54.486;9.046;2023-05-14T09:12:01;20.30;99.90
16838;DHT22;19510;54.486;9.046;2023-05-14T09:14:27;20.50;99.90
16838;DHT22;19510;54.486;9.046;2023-05-14T09:16:56;20.60;99.90
16838;DHT22;19510;54.486;9.046;2023-05-14T09:19:23;20.60;99.90
16838;DHT22;19510;54.486;9.046;2023-05-14T09:21:48;20.70;99.90
16838;DHT22;19510;54.486;9.046;2023-05-14T09:24:25;20.70;99.90
16838;DHT22;19510;54.486;9.046;2023-05-14T09:26:57;20.60;99.90
16838;DHT22;19510;54.486;9.046;2023-05-14T09:29:24;20.70;99.90
16838;DHT22;19510;54.486;9.046;2023-05-14T09:31:51;20.60;99.90
16838;DHT22;19510;54.486;9.046;2023-05-14T09:34:30;20.60;99.90
16838;DHT22;19510;54.486;9.046;2023-05-14T09:37:03;20.60;99.90
16838;DHT22;19510;54.486;9.046;2023-05-14T09:39:30;20.70;99.90
16838;DHT22;19510;54.486;9.046;2023-05-14T09:41:56;20.70;99.90
16838;DHT22;19510;54.486;9.046;2023-05-14T09:44:23;20.90;99.90
16838;DHT22;19510;54.486;9.046;2023-05-14T09:46:50;21.00;99.90
16838;DHT22;19510;54.486;9.046;2023-05-14T09:49:16;21.10;99.90
16838;DHT22;19510;54.486;9.046;2023-05-14T09:51:42;21.30;99.90
16838;DHT22;19510;54.486;9.046;2023-05-14T10:11:19;21.90;99.90
16838;DHT22;19510;54.486;9.046;2023-05-14T10:14:28;22.00;99.90
16838;DHT22;19510;54.486;9.046;2023-05-14T10:17:00;22.00;99.90
16838;DHT22;19510;54.486;9.046;2023-05-14T10:19:27;22.20;99.90
16838;DHT22;19510;54.486;9.046;2023-05-14T10:22:02;22.30;99.90
16838;DHT22;19510;54.486;9.046;2023-05-14T10:24:28;22.40;99.90
16838;DHT22;19510;54.486;9.046;2023-05-14T10:26:55;22.50;99.90
16838;DHT22;19510;54.486;9.046;2023-05-14T10:29:36;22.60;99.90
16838;DHT22;19510;54.486;9.046;2023-05-14T10:32:08;22.60;99.90
16838;DHT22;19510;54.486;9.046;2023-05-14T10:34:39;22.60;99.90
16838;DHT22;19510;54.486;9.046;2023-05-14T10:37:13;22.60;99.90
16838;DHT22;19510;54.486;9.046;2023-05-14T10:39:49;22.70;99.90
16838;DHT22;19510;54.486;9.046;2023-05-14T10:42:21;22.70;99.90
16838;DHT22;19510;54.486;9.046;2023-05-14T10:44:54;22.80;99.90
16838;DHT22;19510;54.486;9.046;2023-05-14T10:47:22;22.80;99.90
16838;DHT22;19510;54.486;9.046;2023-05-14T10:50:41;22.70;99.90
16838;DHT22;19510;54.486;9.046;2023-05-14T10:53:11;22.70;99.90
16838;DHT22;19510;54.486;9.046;2023-05-14T10:55:43;22.80;99.90
16838;DHT22;19510;54.486;9.046;2023-05-14T10:58:10;23.00;99.90
16838;DHT22;19510;54.486;9.046;2023-05-14T11:00:37;23.10;99.90
16838;DHT22;19510;54.486;9.046;2023-05-14T11:03:05;23.30;99.90
16838;DHT22;19510;54.486;9.046;2023-05-14T11:05:40;23.30;99.90
16838;DHT22;19510;54.486;9.046;2023-05-14T11:08:08;23.20;99.90
16838;DHT22;19510;54.486;9.046;2023-05-14T11:10:38;23.20;99.90
16838;DHT22;19510;54.486;9.046;2023-05-14T11:13:05;23.10;99.90
16838;DHT22;19510;54.486;9.046;2023-05-14T11:15:31;23.30;99.90
16838;DHT22;19510;54.486;9.046;2023-05-14T11:17:58;23.50;99.90
16838;DHT22;19510;54.486;9.046;2023-05-14T11:20:28;23.70;99.90
16838;DHT22;19510;54.486;9.046;2023-05-14T11:25:53;23.80;99.90
16838;DHT22;19510;54.486;9.046;2023-05-14T11:28:20;23.90;99.90
16838;DHT22;19510;54.486;9.046;2023-05-14T11:30:49;24.10;99.90
16838;DHT22;19510;54.486;9.046;2023-05-14T11:33:19;24.20;99.90
16838;DHT22;19510;54.486;9.046;2023-05-14T11:35:45;24.40;99.90
16838;DHT22;19510;54.486;9.046;2023-05-14T11:38:18;24.50;99.90
16838;DHT22;19510;54.486;9.046;2023-05-14T11:40:57;24.50;99.90
16838;DHT22;19510;54.486;9.046;2023-05-14T11:43:30;24.50;99.90
16838;DHT22;19510;54.486;9.046;2023-05-14T11:45:56;24.50;99.90
16838;DHT22;19510;54.486;9.046;2023-05-14T11:48:23;24.50;99.90
16838;DHT22;19510;54.486;9.046;2023-05-14T11:50:50;24.50;99.90
16838;DHT22;19510;54.486;9.046;2023-05-14T11:53:29;24.50;99.90
16838;DHT22;19510;54.486;9.046;2023-05-14T11:56:08;24.40;99.90
16838;DHT22;19510;54.486;9.046;2023-05-14T11:58:34;24.20;99.90
16838;DHT22;19510;54.486;9.046;2023-05-14T12:01:00;24.10;99.90
16838;DHT22;19510;54.486;9.046;2023-05-14T12:03:25;24.00;99.90
16838;DHT22;19510;54.486;9.046;2023-05-14T12:06:00;24.00;99.90
16838;DHT22;19510;54.486;9.046;2023-05-14T12:08:28;24.10;99.90
16838;DHT22;19510;54.486;9.046;2023-05-14T12:10:54;24.30;99.90
16838;DHT22;19510;54.486;9.046;2023-05-14T12:13:30;24.50;99.90
16838;DHT22;19510;54.486;9.046;2023-05-14T12:16:06;24.70;99.90
16838;DHT22;19510;54.486;9.046;2023-05-14T12:18:38;24.80;99.90
16838;DHT22;19510;54.486;9.046;2023-05-14T12:21:04;24.80;99.90
16838;DHT22;19510;54.486;9.046;2023-05-14T12:23:32;24.80;99.90
16838;DHT22;19510;54.486;9.046;2023-05-14T12:26:07;24.70;99.90
16838;DHT22;19510;54.486;9.046;2023-05-14T12:28:44;24.90;99.90
16838;DHT22;19510;54.486;9.046;2023-05-14T12:31:12;24.90;99.90
16838;DHT22;19510;54.486;9.046;2023-05-14T12:33:43;25.10;99.90
16838;DHT22;19510;54.486;9.046;2023-05-14T12:36:12;25.20;99.90
16838;DHT22;19510;54.486;9.046;2023-05-14T12:38:39;25.40;99.90
16838;DHT22;19510;54.486;9.046;2023-05-14T12:41:13;25.60;99.90
16838;DHT22;19510;54.486;9.046;2023-05-14T12:43:43;25.80;99.00
16838;DHT22;19510;54.486;9.046;2023-05-14T12:46:08;26.00;99.30
16838;DHT22;19510;54.486;9.046;2023-05-14T12:48:35;26.10;98.60
16838;DHT22;19510;54.486;9.046;2023-05-14T12:51:00;26.20;98.00
16838;DHT22;19510;54.486;9.046;2023-05-14T12:53:27;26.00;97.20
16838;DHT22;19510;54.486;9.046;2023-05-14T12:55:53;25.90;97.60
16838;DHT22;19510;54.486;9.046;2023-05-14T12:58:19;25.70;96.40
16838;DHT22;19510;54.486;9.046;2023-05-14T13:00:45;25.40;95.70
16838;DHT22;19510;54.486;9.046;2023-05-14T13:03:10;25.20;95.80
16838;DHT22;19510;54.486;9.046;2023-05-14T13:05:36;25.00;95.10
16838;DHT22;19510;54.486;9.046;2023-05-14T13:08:02;24.90;96.30
16838;DHT22;19510;54.486;9.046;2023-05-14T13:10:28;24.80;94.50
16838;DHT22;19510;54.486;9.046;2023-05-14T13:12:54;24.60;95.30
16838;DHT22;19510;54.486;9.046;2023-05-14T13:15:21;24.50;95.10
16838;DHT22;19510;54.486;9.046;2023-05-14T13:17:47;24.40;95.60
16838;DHT22;19510;54.486;9.046;2023-05-14T13:20:13;24.30;95.80
16838;DHT22;19510;54.486;9.046;2023-05-14T13:22:39;24.30;95.30
16838;DHT22;19510;54.486;9.046;2023-05-14T13:25:06;24.20;95.80
16838;DHT22;19510;54.486;9.046;2023-05-14T13:27:32;24.00;95.40
16838;DHT22;19510;54.486;9.046;2023-05-14T13:29:58;24.00;95.60
16838;DHT22;19510;54.486;9.046;2023-05-14T13:32:24;24.00;96.10
16838;DHT22;19510;54.486;9.046;2023-05-14T13:34:50;24.10;95.50
16838;DHT22;19510;54.486;9.046;2023-05-14T13:37:16;24.30;98.20
16838;DHT22;19510;54.486;9.046;2023-05-14T13:39:41;24.40;99.90
16838;DHT22;19510;54.486;9.046;2023-05-14T13:42:10;24.30;99.90
16838;DHT22;19510;54.486;9.046;2023-05-14T13:44:57;24.20;99.90
16838;DHT22;19510;54.486;9.046;2023-05-14T13:47:24;24.20;99.90
16838;DHT22;19510;54.486;9.046;2023-05-14T13:50:03;24.00;99.90
16838;DHT22;19510;54.486;9.046;2023-05-14T13:52:39;23.50;99.90
16838;DHT22;19510;54.486;9.046;2023-05-14T13:55:06;23.10;99.90
16838;DHT22;19510;54.486;9.046;2023-05-14T13:57:31;22.90;99.90
16838;DHT22;19510;54.486;9.046;2023-05-14T13:59:57;22.80;99.90
16838;DHT22;19510;54.486;9.046;2023-05-14T14:02:23;22.60;99.90
16838;DHT22;19510;54.486;9.046;2023-05-14T14:04:48;22.50;99.90
16838;DHT22;19510;54.486;9.046;2023-05-14T14:07:14;22.60;99.90
16838;DHT22;19510;54.486;9.046;2023-05-14T14:09:40;22.60;99.90
16838;DHT22;19510;54.486;9.046;2023-05-14T14:12:06;22.60;99.90
16838;DHT22;19510;54.486;9.046;2023-05-14T14:14:31;22.60;99.90
16838;DHT22;19510;54.486;9.046;2023-05-14T14:16:57;22.60;99.90
16838;DHT22;19510;54.486;9.046;2023-05-14T14:19:23;22.70;99.90
16838;DHT22;19510;54.486;9.046;2023-05-14T14:21:49;22.60;99.90
16838;DHT22;19510;54.486;9.046;2023-05-14T14:24:15;22.50;99.90
16838;DHT22;19510;54.486;9.046;2023-05-14T14:26:40;22.60;99.90
16838;DHT22;19510;54.486;9.046;2023-05-14T14:29:06;22.60;99.90
16838;DHT22;19510;54.486;9.046;2023-05-14T14:31:34;22.70;99.90
16838;DHT22;19510;54.486;9.046;2023-05-14T14:34:00;22.60;99.90
16838;DHT22;19510;54.486;9.046;2023-05-14T14:36:27;22.40;99.90
16838;DHT22;19510;54.486;9.046;2023-05-14T14:38:55;22.40;99.90
16838;DHT22;19510;54.486;9.046;2023-05-14T14:41:40;22.40;99.90
16838;DHT22;19510;54.486;9.046;2023-05-14T14:44:08;22.30;99.90
16838;DHT22;19510;54.486;9.046;2023-05-14T14:46:34;22.20;99.90
16838;DHT22;19510;54.486;9.046;2023-05-14T14:49:00;22.10;99.90
16838;DHT22;19510;54.486;9.046;2023-05-14T14:51:27;22.30;99.90
16838;DHT22;19510;54.486;9.046;2023-05-14T14:53:57;22.50;99.90
16838;DHT22;19510;54.486;9.046;2023-05-14T14:56:32;22.70;99.90
16838;DHT22;19510;54.486;9.046;2023-05-14T14:59:08;23.00;99.90
16838;DHT22;19510;54.486;9.046;2023-05-14T15:01:34;23.30;99.90
16838;DHT22;19510;54.486;9.046;2023-05-14T15:04:00;23.10;99.90
16838;DHT22;19510;54.486;9.046;2023-05-14T15:06:26;23.20;99.90
16838;DHT22;19510;54.486;9.046;2023-05-14T15:08:52;23.40;99.90
16838;DHT22;19510;54.486;9.046;2023-05-14T15:11:17;23.30;99.90
16838;DHT22;19510;54.486;9.046;2023-05-14T15:13:43;23.10;99.90
16838;DHT22;19510;54.486;9.046;2023-05-14T15:16:09;23.00;99.90
16838;DHT22;19510;54.486;9.046;2023-05-14T15:18:38;22.60;99.90
16838;DHT22;19510;54.486;9.046;2023-05-14T15:21:05;22.50;99.90
16838;DHT22;19510;54.486;9.046;2023-05-14T15:23:33;22.40;99.90
16838;DHT22;19510;54.486;9.046;2023-05-14T15:26:18;22.20;99.90
16838;DHT22;19510;54.486;9.046;2023-05-14T15:28:47;22.10;99.90
16838;DHT22;19510;54.486;9.046;2023-05-14T15:31:15;22.10;99.90
16838;DHT22;19510;54.486;9.046;2023-05-14T15:33:50;22.30;99.90
16838;DHT22;19510;54.486;9.046;2023-05-14T15:36:18;22.30;99.90
16838;DHT22;19510;54.486;9.046;2023-05-14T15:38:55;22.50;99.90
16838;DHT22;19510;54.486;9.046;2023-05-14T15:41:27;22.60;99.90
16838;DHT22;19510;54.486;9.046;2023-05-14T15:44:00;22.70;99.90
16838;DHT22;19510;54.486;9.046;2023-05-14T15:46:26;22.90;99.90
16838;DHT22;19510;54.486;9.046;2023-05-14T15:48:54;23.00;99.90
16838;DHT22;19510;54.486;9.046;2023-05-14T15:51:20;23.00;99.90
16838;DHT22;19510;54.486;9.046;2023-05-14T15:53:46;23.00;99.90
16838;DHT22;19510;54.486;9.046;2023-05-14T15:56:12;22.90;99.90
16838;DHT22;19510;54.486;9.046;2023-05-14T15:58:38;22.90;99.90
16838;DHT22;19510;54.486;9.046;2023-05-14T16:01:03;22.80;99.90
16838;DHT22;19510;54.486;9.046;2023-05-14T16:03:29;22.70;99.90
16838;DHT22;19510;54.486;9.046;2023-05-14T16:05:55;22.80;99.90
16838;DHT22;19510;54.486;9.046;2023-05-14T16:08:21;22.70;99.90
16838;DHT22;19510;54.486;9.046;2023-05-14T16:10:46;22.70;99.90
16838;DHT22;19510;54.486;9.046;2023-05-14T16:13:12;22.70;99.90
16838;DHT22;19510;54.486;9.046;2023-05-14T16:15:38;22.60;99.90
16838;DHT22;19510;54.486;9.046;2023-05-14T16:18:04;22.60;99.90
16838;DHT22;19510;54.486;9.046;2023-05-14T16:20:32;22.50;99.90
16838;DHT22;19510;54.486;9.046;2023-05-14T16:22:58;22.50;99.90
16838;DHT22;19510;54.486;9.046;2023-05-14T16:25:28;22.40;99.90
16838;DHT22;19510;54.486;9.046;2023-05-14T16:27:55;22.30;99.90
16838;DHT22;19510;54.486;9.046;2023-05-14T16:30:20;21.90;99.90
16838;DHT22;19510;54.486;9.046;2023-05-14T16:32:46;21.90;99.90
16838;DHT22;19510;54.486;9.046;2023-05-14T16:35:14;21.80;99.90
16838;DHT22;19510;54.486;9.046;2023-05-14T16:37:41;21.80;99.90
16838;DHT22;19510;54.486;9.046;2023-05-14T16:40:10;21.80;99.90
16838;DHT22;19510;54.486;9.046;2023-05-14T16:42:38;21.80;99.90
16838;DHT22;19510;54.486;9.046;2023-05-14T16:45:04;21.90;99.90
16838;DHT22;19510;54.486;9.046;2023-05-14T16:47:30;21.90;99.90
16838;DHT22;19510;54.486;9.046;2023-05-14T16:49:55;21.90;99.90
16838;DHT22;19510;54.486;9.046;2023-05-14T16:52:21;22.00;99.90
16838;DHT22;19510;54.486;9.046;2023-05-14T16:54:46;22.00;99.90
16838;DHT22;19510;54.486;9.046;2023-05-14T16:57:12;22.10;99.90
16838;DHT22;19510;54.486;9.046;2023-05-14T16:59:38;22.10;99.90
16838;DHT22;19510;54.486;9.046;2023-05-14T17:02:06;22.10;99.90
16838;DHT22;19510;54.486;9.046;2023-05-14T17:04:32;22.00;99.90
16838;DHT22;19510;54.486;9.046;2023-05-14T17:07:03;21.90;99.90
16838;DHT22;19510;54.486;9.046;2023-05-14T17:09:30;21.90;99.90
16838;DHT22;19510;54.486;9.046;2023-05-14T17:11:56;21.80;99.90
16838;DHT22;19510;54.486;9.046;2023-05-14T17:14:22;21.80;99.90
16838;DHT22;19510;54.486;9.046;2023-05-14T17:16:47;21.70;99.90
16838;DHT22;19510;54.486;9.046;2023-05-14T17:19:13;21.70;99.90
16838;DHT22;19510;54.486;9.046;2023-05-14T17:21:41;21.70;99.90
16838;DHT22;19510;54.486;9.046;2023-05-14T17:24:06;21.70;99.90
16838;DHT22;19510;54.486;9.046;2023-05-14T17:26:32;21.60;99.90
16838;DHT22;19510;54.486;9.046;2023-05-14T17:28:58;21.60;99.90
16838;DHT22;19510;54.486;9.046;2023-05-14T17:31:24;21.50;99.90
16838;DHT22;19510;54.486;9.046;2023-05-14T17:33:50;21.50;99.90
16838;DHT22;19510;54.486;9.046;2023-05-14T17:36:18;21.50;99.90
16838;DHT22;19510;54.486;9.046;2023-05-14T17:38:46;21.50;99.90
16838;DHT22;19510;54.486;9.046;2023-05-14T17:41:12;21.40;99.90
16838;DHT22;19510;54.486;9.046;2023-05-14T17:43:42;21.50;99.90
16838;DHT22;19510;54.486;9.046;2023-05-14T17:46:08;21.50;99.90
16838;DHT22;19510;54.486;9.046;2023-05-14T17:48:33;21.40;99.90
16838;DHT22;19510;54.486;9.046;2023-05-14T17:51:01;21.50;99.90
16838;DHT22;19510;54.486;9.046;2023-05-14T17:53:27;21.40;99.90
16838;DHT22;19510;54.486;9.046;2023-05-14T17:55:53;21.40;99.90
16838;DHT22;19510;54.486;9.046;2023-05-14T17:58:18;21.30;99.90
16838;DHT22;19510;54.486;9.046;2023-05-14T18:00:44;21.20;99.90
16838;DHT22;19510;54.486;9.046;2023-05-14T18:03:10;21.20;99.90
16838;DHT22;19510;54.486;9.046;2023-05-14T18:05:38;21.10;99.90
16838;DHT22;19510;54.486;9.046;2023-05-14T18:08:04;21.00;99.90
16838;DHT22;19510;54.486;9.046;2023-05-14T18:10:29;20.90;99.90
16838;DHT22;19510;54.486;9.046;2023-05-14T18:12:58;20.90;99.90
16838;DHT22;19510;54.486;9.046;2023-05-14T18:15:24;20.80;99.90
16838;DHT22;19510;54.486;9.046;2023-05-14T18:17:51;20.70;99.90
16838;DHT22;19510;54.486;9.046;2023-05-14T18:20:17;20.70;99.90
16838;DHT22;19510;54.486;9.046;2023-05-14T18:22:43;20.60;99.90
16838;DHT22;19510;54.486;9.046;2023-05-14T18:25:11;20.50;99.90
16838;DHT22;19510;54.486;9.046;2023-05-14T18:27:40;20.40;99.90
16838;DHT22;19510;54.486;9.046;2023-05-14T18:30:13;20.40;99.90
16838;DHT22;19510;54.486;9.046;2023-05-14T18:32:40;20.30;99.90
16838;DHT22;19510;54.486;9.046;2023-05-14T18:35:06;20.30;99.90
16838;DHT22;19510;54.486;9.046;2023-05-14T18:37:33;20.20;99.90
16838;DHT22;19510;54.486;9.046;2023-05-14T18:40:00;20.10;99.90
16838;DHT22;19510;54.486;9.046;2023-05-14T18:42:26;20.00;99.90
16838;DHT22;19510;54.486;9.046;2023-05-14T18:44:52;20.00;99.90
16838;DHT22;19510;54.486;9.046;2023-05-14T18:47:20;19.90;99.90
16838;DHT22;19510;54.486;9.046;2023-05-14T18:49:46;19.90;99.90
16838;DHT22;19510;54.486;9.046;2023-05-14T18:52:12;19.80;99.90
16838;DHT22;19510;54.486;9.046;2023-05-14T18:54:37;19.70;99.90
16838;DHT22;19510;54.486;9.046;2023-05-14T18:57:07;19.70;99.90
16838;DHT22;19510;54.486;9.046;2023-05-14T18:59:39;19.60;99.90
16838;DHT22;19510;54.486;9.046;2023-05-14T19:02:10;19.50;99.90
16838;DHT22;19510;54.486;9.046;2023-05-14T19:04:36;19.40;99.90
16838;DHT22;19510;54.486;9.046;2023-05-14T19:07:02;19.30;99.90
16838;DHT22;19510;54.486;9.046;2023-05-14T19:09:28;19.20;99.90
16838;DHT22;19510;54.486;9.046;2023-05-14T19:11:53;19.10;99.90
16838;DHT22;19510;54.486;9.046;2023-05-14T19:14:20;19.00;99.90
16838;DHT22;19510;54.486;9.046;2023-05-14T19:16:45;18.90;99.90
16838;DHT22;19510;54.486;9.046;2023-05-14T19:19:11;18.80;99.90
16838;DHT22;19510;54.486;9.046;2023-05-14T19:21:41;18.70;99.90
16838;DHT22;19510;54.486;9.046;2023-05-14T19:24:07;18.60;99.90
16838;DHT22;19510;54.486;9.046;2023-05-14T19:26:35;18.50;99.90
16838;DHT22;19510;54.486;9.046;2023-05-14T19:29:01;18.50;99.90
16838;DHT22;19510;54.486;9.046;2023-05-14T19:31:27;18.50;99.90
16838;DHT22;19510;54.486;9.046;2023-05-14T19:33:53;18.50;99.90
16838;DHT22;19510;54.486;9.046;2023-05-14T19:36:20;18.40;99.90
16838;DHT22;19510;54.486;9.046;2023-05-14T19:38:46;18.40;99.90
16838;DHT22;19510;54.486;9.046;2023-05-14T19:41:11;18.40;99.90
16838;DHT22;19510;54.486;9.046;2023-05-14T19:43:40;18.40;99.90
16838;DHT22;19510;54.486;9.046;2023-05-14T19:46:06;18.30;99.90
16838;DHT22;19510;54.486;9.046;2023-05-14T19:48:32;18.20;99.90
16838;DHT22;19510;54.486;9.046;2023-05-14T19:50:58;18.20;99.90
16838;DHT22;19510;54.486;9.046;2023-05-14T19:53:24;18.20;99.90
16838;DHT22;19510;54.486;9.046;2023-05-14T19:56:03;18.10;99.90
16838;DHT22;19510;54.486;9.046;2023-05-14T19:58:29;18.10;99.90
16838;DHT22;19510;54.486;9.046;2023-05-14T20:00:55;18.10;99.90
16838;DHT22;19510;54.486;9.046;2023-05-14T20:03:23;18.10;99.90
16838;DHT22;19510;54.486;9.046;2023-05-14T20:05:51;18.10;99.90
16838;DHT22;19510;54.486;9.046;2023-05-14T20:08:20;18.10;99.90
16838;DHT22;19510;54.486;9.046;2023-05-14T20:10:46;18.10;99.90
16838;DHT22;19510;54.486;9.046;2023-05-14T20:13:14;18.10;99.90
16838;DHT22;19510;54.486;9.046;2023-05-14T20:15:43;18.10;99.90
16838;DHT22;19510;54.486;9.046;2023-05-14T20:18:11;18.10;99.90
16838;DHT22;19510;54.486;9.046;2023-05-14T20:20:37;18.00;99.90
16838;DHT22;19510;54.486;9.046;2023-05-14T20:23:04;18.00;99.90
16838;DHT22;19510;54.486;9.046;2023-05-14T20:25:30;18.00;99.90
16838;DHT22;19510;54.486;9.046;2023-05-14T20:28:00;17.90;99.90
16838;DHT22;19510;54.486;9.046;2023-05-14T20:30:26;17.90;99.90
16838;DHT22;19510;54.486;9.046;2023-05-14T20:32:52;17.90;99.90
16838;DHT22;19510;54.486;9.046;2023-05-14T20:35:18;17.90;99.90
16838;DHT22;19510;54.486;9.046;2023-05-14T20:37:43;17.80;99.90
16838;DHT22;19510;54.486;9.046;2023-05-14T20:40:10;17.80;99.90
16838;DHT22;19510;54.486;9.046;2023-05-14T20:42:38;17.70;99.90
16838;DHT22;19510;54.486;9.046;2023-05-14T20:45:07;17.60;99.90
16838;DHT22;19510;54.486;9.046;2023-05-14T20:47:33;17.60;99.90
16838;DHT22;19510;54.486;9.046;2023-05-14T20:50:03;17.60;99.90
16838;DHT22;19510;54.486;9.046;2023-05-14T20:52:29;17.60;99.90
16838;DHT22;19510;54.486;9.046;2023-05-14T20:54:57;17.50;99.90
16838;DHT22;19510;54.486;9.046;2023-05-14T20:57:23;17.50;99.90
16838;DHT22;19510;54.486;9.046;2023-05-14T20:59:49;17.50;99.90
16838;DHT22;19510;54.486;9.046;2023-05-14T21:02:17;17.50;99.90
16838;DHT22;19510;54.486;9.046;2023-05-14T21:04:43;17.40;99.90
16838;DHT22;19510;54.486;9.046;2023-05-14T21:07:09;17.40;99.90
16838;DHT22;19510;54.486;9.046;2023-05-14T21:09:37;17.40;99.90
16838;DHT22;19510;54.486;9.046;2023-05-14T21:12:03;17.40;99.90
16838;DHT22;19510;54.486;9.046;2023-05-14T21:14:30;17.30;99.90
16838;DHT22;19510;54.486;9.046;2023-05-14T21:16:55;17.30;99.90
16838;DHT22;19510;54.486;9.046;2023-05-14T21:19:21;17.20;99.90
16838;DHT22;19510;54.486;9.046;2023-05-14T21:21:47;17.20;99.90
16838;DHT22;19510;54.486;9.046;2023-05-14T21:24:13;17.20;99.90
16838;DHT22;19510;54.486;9.046;2023-05-14T21:26:41;17.10;99.90
16838;DHT22;19510;54.486;9.046;2023-05-14T21:29:07;17.00;99.90
16838;DHT22;19510;54.486;9.046;2023-05-14T21:31:32;17.00;99.90
16838;DHT22;19510;54.486;9.046;2023-05-14T21:33:58;16.90;99.90
16838;DHT22;19510;54.486;9.046;2023-05-14T21:36:24;16.90;99.90
16838;DHT22;19510;54.486;9.046;2023-05-14T21:38:52;16.90;99.90
16838;DHT22;19510;54.486;9.046;2023-05-14T21:41:17;16.90;99.90
16838;DHT22;19510;54.486;9.046;2023-05-14T21:43:43;17.00;99.90
16838;DHT22;19510;54.486;9.046;2023-05-14T21:46:09;16.90;99.90
16838;DHT22;19510;54.486;9.046;2023-05-14T21:48:35;16.90;99.90
16838;DHT22;19510;54.486;9.046;2023-05-14T21:51:01;16.80;99.90
16838;DHT22;19510;54.486;9.046;2023-05-14T21:53:26;16.80;99.90
16838;DHT22;19510;54.486;9.046;2023-05-14T21:55:52;16.80;99.90
16838;DHT22;19510;54.486;9.046;2023-05-14T21:58:19;16.70;99.90
16838;DHT22;19510;54.486;9.046;2023-05-14T22:00:45;16.70;99.90
16838;DHT22;19510;54.486;9.046;2023-05-14T22:03:11;16.60;99.90
16838;DHT22;19510;54.486;9.046;2023-05-14T22:05:37;16.60;99.90
16838;DHT22;19510;54.486;9.046;2023-05-14T22:08:03;16.60;99.90
16838;DHT22;19510;54.486;9.046;2023-05-14T22:10:29;16.50;99.90
16838;DHT22;19510;54.486;9.046;2023-05-14T22:12:55;16.40;99.90
16838;DHT22;19510;54.486;9.046;2023-05-14T22:15:21;16.40;99.90
16838;DHT22;19510;54.486;9.046;2023-05-14T22:17:46;16.50;99.90
16838;DHT22;19510;54.486;9.046;2023-05-14T22:20:13;16.40;99.90
16838;DHT22;19510;54.486;9.046;2023-05-14T22:22:39;16.30;99.90